createdAt,value
2018-12-08T00:01:01.125Z,39.40
2018-12-08T00:03:29.960Z,39.27
2018-12-08T00:05:58.916Z,40.30
2018-12-08T00:08:28.111Z,40.37
2018-12-08T00:10:56.954Z,33.93
2018-12-08T00:13:25.761Z,32.13
2018-12-08T00:15:54.634Z,30.83
2018-12-08T00:18:23.881Z,35.13
2018-12-08T00:20:52.840Z,38.00
2018-12-08T00:23:21.687Z,39.63
2018-12-08T00:25:50.488Z,37.90
2018-12-08T00:28:19.331Z,39.70
2018-12-08T00:30:59.154Z,44.80
2018-12-08T00:33:28.077Z,37.07
2018-12-08T00:35:56.996Z,30.40
2018-12-08T00:38:25.898Z,33.50
2018-12-08T00:40:54.739Z,38.83
2018-12-08T00:43:23.608Z,42.83
2018-12-08T00:45:52.580Z,43.73
2018-12-08T00:48:21.483Z,43.20
2018-12-08T00:50:50.296Z,36.77
2018-12-08T00:53:19.128Z,34.13
2018-12-08T00:55:47.929Z,35.23
2018-12-08T00:58:16.813Z,40.80
2018-12-08T01:00:45.727Z,39.23
2018-12-08T01:03:14.507Z,38.50
2018-12-08T01:05:43.350Z,36.10
2018-12-08T01:08:12.375Z,37.80
2018-12-08T01:10:41.192Z,37.70
2018-12-08T01:13:10.070Z,36.77
2018-12-08T01:15:38.951Z,39.60
2018-12-08T01:18:07.852Z,38.97
2018-12-08T01:20:36.647Z,39.17
2018-12-08T01:23:05.509Z,39.47
2018-12-08T01:25:34.488Z,40.97
2018-12-08T01:28:03.351Z,37.83
2018-12-08T01:30:32.332Z,41.20
2018-12-08T01:33:01.352Z,39.63
2018-12-08T01:35:30.267Z,39.27
2018-12-08T01:37:59.129Z,38.47
2018-12-08T01:40:27.945Z,40.13
2018-12-08T01:42:56.934Z,63.53
2018-12-08T01:45:26.478Z,56.70
2018-12-08T01:47:55.455Z,45.47
2018-12-08T01:50:24.346Z,45.20
2018-12-08T01:52:53.338Z,49.40
2018-12-08T01:55:22.307Z,57.20
2018-12-08T01:57:51.193Z,66.13
2018-12-08T02:00:20.123Z,51.93
2018-12-08T02:02:48.940Z,44.57
2018-12-08T02:05:17.859Z,41.67
2018-12-08T02:07:46.635Z,40.13
2018-12-08T02:10:15.523Z,39.90
2018-12-08T02:12:44.348Z,39.33
2018-12-08T02:15:13.407Z,38.63
2018-12-08T02:17:42.247Z,39.37
2018-12-08T02:20:11.084Z,42.33
2018-12-08T02:22:39.906Z,46.10
2018-12-08T02:25:08.743Z,48.13
2018-12-08T02:27:37.588Z,45.00
2018-12-08T02:30:06.627Z,41.50
2018-12-08T02:32:35.648Z,42.73
2018-12-08T02:35:04.936Z,47.27
2018-12-08T02:37:33.767Z,43.67
2018-12-08T02:40:02.643Z,43.20
2018-12-08T02:42:31.645Z,45.73
2018-12-08T02:45:00.510Z,43.17
2018-12-08T02:47:29.528Z,44.60
2018-12-08T02:49:58.497Z,47.87
2018-12-08T02:52:27.539Z,46.80
2018-12-08T02:54:56.360Z,45.40
2018-12-08T02:57:25.199Z,44.20
2018-12-08T02:59:54.041Z,47.07
2018-12-08T03:02:22.923Z,43.87
2018-12-08T03:04:51.871Z,44.23
2018-12-08T03:07:20.678Z,45.30
2018-12-08T03:09:49.611Z,48.13
2018-12-08T03:12:18.470Z,51.67
2018-12-08T03:14:47.419Z,49.73
2018-12-08T03:17:16.366Z,49.43
2018-12-08T03:19:45.232Z,48.77
2018-12-08T03:22:14.097Z,49.40
2018-12-08T03:24:42.875Z,50.67
2018-12-08T03:27:11.762Z,45.43
2018-12-08T03:29:40.653Z,39.80
2018-12-08T03:32:09.555Z,42.23
2018-12-08T03:34:38.487Z,44.93
2018-12-08T03:37:07.375Z,46.60
2018-12-08T03:39:36.319Z,46.90
2018-12-08T03:42:05.409Z,42.47
2018-12-08T03:44:34.223Z,45.67
2018-12-08T03:47:03.109Z,46.03
2018-12-08T03:49:31.985Z,44.57
2018-12-08T03:52:00.791Z,47.97
2018-12-08T03:54:29.687Z,54.13
2018-12-08T03:56:58.617Z,48.17
2018-12-08T03:59:27.492Z,49.60
2018-12-08T04:01:56.410Z,46.40
2018-12-08T04:04:25.212Z,45.77
2018-12-08T04:06:54.026Z,45.47
2018-12-08T04:09:22.879Z,44.87
2018-12-08T04:11:51.780Z,47.13
2018-12-08T04:14:20.656Z,46.47
2018-12-08T04:16:49.661Z,45.67
2018-12-08T04:19:18.480Z,42.73
2018-12-08T04:21:47.493Z,39.30
2018-12-08T04:24:16.376Z,41.70
2018-12-08T04:26:45.300Z,42.27
2018-12-08T04:29:14.311Z,40.40
2018-12-08T04:31:43.103Z,44.87
2018-12-08T04:34:11.949Z,44.43
2018-12-08T04:36:40.779Z,43.37
2018-12-08T04:39:09.699Z,41.07
2018-12-08T04:41:38.541Z,39.53
2018-12-08T04:44:07.457Z,40.30
2018-12-08T04:46:36.333Z,41.73
2018-12-08T04:49:05.163Z,42.70
2018-12-08T04:51:33.964Z,44.77
2018-12-08T04:54:02.894Z,45.67
2018-12-08T04:56:31.716Z,49.40
2018-12-08T04:59:00.686Z,45.73
2018-12-08T05:01:29.642Z,47.37
2018-12-08T05:03:58.397Z,48.53
2018-12-08T05:06:27.326Z,48.13
2018-12-08T05:08:56.145Z,47.57
2018-12-08T05:11:24.929Z,45.57
2018-12-08T05:13:53.788Z,46.10
2018-12-08T05:16:22.639Z,47.47
2018-12-08T05:18:51.455Z,77.30
2018-12-08T05:21:20.272Z,56.57
2018-12-08T05:23:49.177Z,55.37
2018-12-08T05:26:18.052Z,63.20
2018-12-08T05:28:46.957Z,72.60
2018-12-08T05:31:15.865Z,57.10
2018-12-08T05:33:44.679Z,44.77
2018-12-08T05:36:13.603Z,51.30
2018-12-08T05:38:42.443Z,72.30
2018-12-08T05:41:11.380Z,58.07
2018-12-08T05:43:40.219Z,52.97
2018-12-08T05:46:09.100Z,47.67
2018-12-08T05:48:37.920Z,45.40
2018-12-08T05:51:06.862Z,56.83
2018-12-08T05:53:35.679Z,53.47
2018-12-08T05:56:04.641Z,58.57
2018-12-08T05:58:33.442Z,59.77
2018-12-08T06:01:02.250Z,57.10
2018-12-08T06:03:31.160Z,58.27
2018-12-08T06:05:59.948Z,70.57
2018-12-08T06:08:28.785Z,69.27
2018-12-08T06:10:57.608Z,85.23
2018-12-08T06:13:26.461Z,59.67
2018-12-08T06:15:55.430Z,57.87
2018-12-08T06:18:24.242Z,56.60
2018-12-08T06:20:53.044Z,50.80
2018-12-08T06:23:21.880Z,43.33
2018-12-08T06:25:50.910Z,47.70
2018-12-08T06:28:28.915Z,44.60
2018-12-08T06:30:57.809Z,44.57
2018-12-08T06:33:27.069Z,45.57
2018-12-08T06:35:56.327Z,54.50
2018-12-08T06:38:25.671Z,43.03
2018-12-08T06:40:54.705Z,39.10
2018-12-08T06:43:23.921Z,41.63
2018-12-08T06:45:53.184Z,41.50
2018-12-08T06:48:22.388Z,41.93
2018-12-08T06:50:51.583Z,125.87
2018-12-08T06:53:20.681Z,99.77
2018-12-08T06:55:49.443Z,82.57
2018-12-08T06:58:18.482Z,93.13
2018-12-08T07:00:47.656Z,74.30
2018-12-08T07:03:16.533Z,88.93
2018-12-08T07:05:45.375Z,90.60
2018-12-08T07:08:14.231Z,105.80
2018-12-08T07:10:42.996Z,88.40
2018-12-08T07:13:11.838Z,84.63
2018-12-08T07:15:40.621Z,85.97
2018-12-08T07:18:09.482Z,114.70
2018-12-08T07:20:38.279Z,92.80
2018-12-08T07:23:07.063Z,69.43
2018-12-08T07:25:36.021Z,63.47
2018-12-08T07:28:06.415Z,65.77
2018-12-08T07:30:35.500Z,67.37
2018-12-08T07:33:04.420Z,105.73
2018-12-08T07:35:33.633Z,70.43
2018-12-08T07:38:02.570Z,86.23
2018-12-08T07:40:31.468Z,107.47
2018-12-08T07:43:00.418Z,129.20
2018-12-08T07:45:29.398Z,141.07
2018-12-08T07:47:58.398Z,116.43
2018-12-08T07:50:27.210Z,100.27
2018-12-08T07:52:56.155Z,82.00
2018-12-08T07:55:25.078Z,79.43
2018-12-08T07:57:53.998Z,63.30
2018-12-08T08:00:22.967Z,74.83
2018-12-08T08:02:51.787Z,81.77
2018-12-08T08:05:20.535Z,70.60
2018-12-08T08:07:49.368Z,65.83
2018-12-08T08:10:18.170Z,57.93
2018-12-08T08:12:46.977Z,58.13
2018-12-08T08:15:15.848Z,58.40
2018-12-08T08:17:44.656Z,60.70
2018-12-08T08:20:13.566Z,61.80
2018-12-08T08:22:42.534Z,54.13
2018-12-08T08:25:12.105Z,60.50
2018-12-08T08:27:40.949Z,59.20
2018-12-08T08:30:11.791Z,52.17
2018-12-08T08:32:40.562Z,53.83
2018-12-08T08:35:09.647Z,58.90
2018-12-08T08:37:38.597Z,47.67
2018-12-08T08:40:09.720Z,56.00
2018-12-08T08:42:38.517Z,95.27
2018-12-08T08:45:08.338Z,84.83
2018-12-08T08:47:37.256Z,91.57
2018-12-08T08:50:08.829Z,93.20
2018-12-08T08:52:37.739Z,119.60
2018-12-08T08:55:07.287Z,102.80
2018-12-08T08:57:36.144Z,93.03
2018-12-08T09:00:07.012Z,100.60
2018-12-08T09:02:35.926Z,96.47
2018-12-08T09:05:05.424Z,103.73
2018-12-08T09:07:34.327Z,97.97
2018-12-08T09:10:03.219Z,113.57
2018-12-08T09:12:31.986Z,64.30
2018-12-08T09:15:00.904Z,67.00
2018-12-08T09:17:29.748Z,68.93
2018-12-08T09:19:58.594Z,57.87
2018-12-08T09:22:27.403Z,60.93
2018-12-08T09:24:56.377Z,54.50
2018-12-08T09:27:25.315Z,53.87
2018-12-08T09:29:54.155Z,58.67
2018-12-08T09:32:23.017Z,56.80
2018-12-08T09:34:51.805Z,55.33
2018-12-08T09:37:20.607Z,52.10
2018-12-08T09:39:49.463Z,62.83
2018-12-08T09:42:18.295Z,61.03
2018-12-08T09:44:47.132Z,53.77
2018-12-08T09:47:16.012Z,52.80
2018-12-08T09:49:44.863Z,53.53
2018-12-08T09:52:13.658Z,58.20
2018-12-08T09:54:42.644Z,55.97
2018-12-08T09:57:11.499Z,59.53
2018-12-08T09:59:40.250Z,55.13
2018-12-08T10:02:09.070Z,61.63
2018-12-08T10:04:38.422Z,62.33
2018-12-08T10:07:07.370Z,73.20
2018-12-08T10:09:36.273Z,55.07
2018-12-08T10:12:05.283Z,56.60
2018-12-08T10:14:34.239Z,59.43
2018-12-08T10:17:02.992Z,54.13
2018-12-08T10:19:31.926Z,61.17
2018-12-08T10:22:00.766Z,61.30
2018-12-08T10:24:29.666Z,54.30
2018-12-08T10:26:58.517Z,56.13
2018-12-08T10:29:28.141Z,52.40
2018-12-08T10:31:57.243Z,52.57
2018-12-08T10:34:26.035Z,52.30
2018-12-08T10:36:54.982Z,54.30
2018-12-08T10:39:23.892Z,54.27
2018-12-08T10:41:52.676Z,59.00
2018-12-08T10:44:21.571Z,51.87
2018-12-08T10:46:50.483Z,51.33
2018-12-08T10:49:19.451Z,59.77
2018-12-08T10:51:48.246Z,57.03
2018-12-08T10:54:17.069Z,58.37
2018-12-08T10:56:45.891Z,54.23
2018-12-08T10:59:14.716Z,52.17
2018-12-08T11:01:48.700Z,56.70
2018-12-08T11:04:17.530Z,54.47
2018-12-08T11:06:46.424Z,54.63
2018-12-08T11:09:15.309Z,57.17
2018-12-08T11:11:44.247Z,54.00
2018-12-08T11:14:13.124Z,56.67
2018-12-08T11:16:41.954Z,58.73
2018-12-08T11:19:10.819Z,53.23
2018-12-08T11:21:39.668Z,60.00
2018-12-08T11:24:08.519Z,51.33
2018-12-08T11:26:37.343Z,51.43
2018-12-08T11:29:06.137Z,51.00
2018-12-08T11:31:35.000Z,53.50
2018-12-08T11:34:03.870Z,50.17
2018-12-08T11:36:32.762Z,49.10
2018-12-08T11:39:01.545Z,51.40
2018-12-08T11:41:30.411Z,48.23
2018-12-08T11:43:59.222Z,57.10
2018-12-08T11:46:28.070Z,52.40
2018-12-08T11:48:56.973Z,53.73
2018-12-08T11:51:25.798Z,56.37
2018-12-08T11:53:54.750Z,51.67
2018-12-08T11:56:23.672Z,52.73
2018-12-08T11:58:52.447Z,55.80
2018-12-08T12:01:21.281Z,59.93
2018-12-08T12:03:50.100Z,65.80
2018-12-08T12:06:18.953Z,61.43
2018-12-08T12:08:47.917Z,57.17
2018-12-08T12:11:17.568Z,49.53
2018-12-08T12:13:46.413Z,51.47
2018-12-08T12:16:15.608Z,71.13
2018-12-08T12:18:44.500Z,62.87
2018-12-08T12:21:13.469Z,59.03
2018-12-08T12:23:42.348Z,56.40
2018-12-08T12:26:11.292Z,57.63
2018-12-08T12:28:40.188Z,61.33
2018-12-08T12:31:09.033Z,66.60
2018-12-08T12:33:37.963Z,67.10
2018-12-08T12:36:06.871Z,73.87
2018-12-08T12:38:35.721Z,65.97
2018-12-08T12:41:04.571Z,58.93
2018-12-08T12:43:33.555Z,67.40
2018-12-08T12:46:02.343Z,60.73
2018-12-08T12:48:32.148Z,61.70
2018-12-08T12:51:01.053Z,54.70
2018-12-08T12:53:29.983Z,53.03
2018-12-08T12:55:58.833Z,53.10
2018-12-08T12:58:27.658Z,54.33
2018-12-08T13:00:56.507Z,54.03
2018-12-08T13:03:25.319Z,57.23
2018-12-08T13:05:54.060Z,58.23
2018-12-08T13:08:22.951Z,92.77
2018-12-08T13:10:51.800Z,67.67
2018-12-08T13:13:20.682Z,56.03
2018-12-08T13:15:49.520Z,53.07
2018-12-08T13:18:18.541Z,62.90
2018-12-08T13:20:48.021Z,67.20
2018-12-08T13:23:16.923Z,78.70
2018-12-08T13:25:45.761Z,71.43
2018-12-08T13:28:14.627Z,82.97
2018-12-08T13:30:43.800Z,69.63
2018-12-08T13:33:12.672Z,56.23
2018-12-08T13:35:57.887Z,73.20
2018-12-08T13:38:26.747Z,69.13
2018-12-08T13:40:55.636Z,68.57
2018-12-08T13:43:24.551Z,67.27
2018-12-08T13:45:53.530Z,66.50
2018-12-08T13:48:24.933Z,63.63
2018-12-08T13:50:54.112Z,73.33
2018-12-08T13:53:22.958Z,76.57
2018-12-08T13:55:51.859Z,71.93
2018-12-08T13:58:20.603Z,80.10
2018-12-08T14:00:49.432Z,88.50
2018-12-08T14:03:18.255Z,78.23
2018-12-08T14:05:47.127Z,67.77
2018-12-08T14:08:15.981Z,64.67
2018-12-08T14:10:44.923Z,71.87
2018-12-08T14:13:13.883Z,69.53
2018-12-08T14:15:42.718Z,79.07
2018-12-08T14:18:11.637Z,90.50
2018-12-08T14:20:40.511Z,93.03
2018-12-08T14:23:09.392Z,103.63
2018-12-08T14:25:38.172Z,91.63
2018-12-08T14:28:07.101Z,80.67
2018-12-08T14:30:35.990Z,76.37
2018-12-08T14:33:04.961Z,78.33
2018-12-08T14:35:33.945Z,90.93
2018-12-08T14:38:02.869Z,67.70
2018-12-08T14:40:31.783Z,64.30
2018-12-08T14:43:00.678Z,68.50
2018-12-08T14:45:29.488Z,67.70
2018-12-08T14:47:58.398Z,66.67
2018-12-08T14:50:27.212Z,85.87
2018-12-08T14:52:56.088Z,86.10
2018-12-08T14:55:24.988Z,83.67
2018-12-08T14:57:53.828Z,91.20
2018-12-08T15:00:22.698Z,92.23
2018-12-08T15:02:51.507Z,86.80
2018-12-08T15:05:20.358Z,90.63
2018-12-08T15:07:49.164Z,102.10
2018-12-08T15:10:18.056Z,78.60
2018-12-08T15:12:46.839Z,73.37
2018-12-08T15:15:15.750Z,84.40
2018-12-08T15:17:44.982Z,105.97
2018-12-08T15:20:14.032Z,105.67
2018-12-08T15:22:43.088Z,106.53
2018-12-08T15:25:12.268Z,103.33
2018-12-08T15:27:41.293Z,83.50
2018-12-08T15:30:11.081Z,82.97
2018-12-08T15:32:40.077Z,77.53
2018-12-08T15:35:10.765Z,85.77
2018-12-08T15:37:40.655Z,89.23
2018-12-08T15:40:10.850Z,114.67
2018-12-08T15:42:40.199Z,154.47
2018-12-08T15:45:11.158Z,184.83
2018-12-08T15:47:40.160Z,133.43
2018-12-08T15:50:11.110Z,133.47
2018-12-08T15:52:41.145Z,132.77
2018-12-08T15:55:10.026Z,150.53
2018-12-08T15:57:39.330Z,164.13
2018-12-08T16:00:11.095Z,148.17
2018-12-08T16:02:40.633Z,138.37
2018-12-08T16:05:09.927Z,110.93
2018-12-08T16:07:38.900Z,93.17
2018-12-08T16:10:09.326Z,75.33
2018-12-08T16:12:38.273Z,67.50
2018-12-08T16:15:08.803Z,69.93
2018-12-08T16:17:37.801Z,80.17
2018-12-08T16:20:10.780Z,91.77
2018-12-08T16:22:40.047Z,87.10
2018-12-08T16:25:09.441Z,101.00
2018-12-08T16:27:38.759Z,103.73
2018-12-08T16:30:09.295Z,90.40
2018-12-08T16:32:38.108Z,96.43
2018-12-08T16:35:07.340Z,78.80
2018-12-08T16:37:36.292Z,77.83
2018-12-08T16:40:05.690Z,80.37
2018-12-08T16:42:34.853Z,127.67
2018-12-08T16:45:04.037Z,113.30
2018-12-08T16:47:33.844Z,107.10
2018-12-08T16:50:02.699Z,99.77
2018-12-08T16:52:31.719Z,83.13
2018-12-08T16:55:00.553Z,82.83
2018-12-08T16:57:29.520Z,86.43
2018-12-08T16:59:58.835Z,82.27
2018-12-08T17:02:27.627Z,80.90
2018-12-08T17:04:57.091Z,80.67
2018-12-08T17:07:26.190Z,79.07
2018-12-08T17:09:55.041Z,116.90
2018-12-08T17:12:24.069Z,84.73
2018-12-08T17:14:52.956Z,70.47
2018-12-08T17:17:21.859Z,67.97
2018-12-08T17:19:50.806Z,75.67
2018-12-08T17:22:19.692Z,76.97
2018-12-08T17:24:48.640Z,89.90
2018-12-08T17:27:17.444Z,203.43
2018-12-08T17:29:46.556Z,217.03
2018-12-08T17:32:15.390Z,106.70
2018-12-08T17:34:44.886Z,139.97
2018-12-08T17:37:13.764Z,115.50
2018-12-08T17:39:42.703Z,94.57
2018-12-08T17:42:11.578Z,94.87
2018-12-08T17:44:40.383Z,92.63
2018-12-08T17:47:09.314Z,97.37
2018-12-08T17:49:39.198Z,113.77
2018-12-08T17:52:08.031Z,88.40
2018-12-08T17:54:38.121Z,86.30
2018-12-08T17:57:07.280Z,93.00
2018-12-08T17:59:36.116Z,84.30
2018-12-08T18:02:05.885Z,84.13
2018-12-08T18:04:34.817Z,113.80
2018-12-08T18:07:03.944Z,95.93
2018-12-08T18:09:32.700Z,126.47
2018-12-08T18:12:01.740Z,121.27
2018-12-08T18:14:30.547Z,111.37
2018-12-08T18:17:00.245Z,97.30
2018-12-08T18:19:29.068Z,94.70
2018-12-08T18:21:58.491Z,87.73
2018-12-08T18:24:27.492Z,85.60
2018-12-08T18:26:56.607Z,90.50
2018-12-08T18:29:26.067Z,65.27
2018-12-08T18:31:54.922Z,73.40
2018-12-08T18:34:24.283Z,74.73
2018-12-08T18:36:53.104Z,67.43
2018-12-08T18:39:22.084Z,71.27
2018-12-08T18:41:51.409Z,65.67
2018-12-08T18:44:21.002Z,71.80
2018-12-08T18:46:51.183Z,72.53
2018-12-08T18:49:20.937Z,86.07
2018-12-08T18:51:50.730Z,122.00
2018-12-08T18:54:20.012Z,73.10
2018-12-08T18:56:48.940Z,78.10
2018-12-08T18:59:17.912Z,82.30
2018-12-08T19:01:46.791Z,59.80
2018-12-08T19:04:15.665Z,48.40
2018-12-08T19:06:44.494Z,45.33
2018-12-08T19:09:13.484Z,50.90
2018-12-08T19:11:42.474Z,59.83
2018-12-08T19:14:11.319Z,58.57
2018-12-08T19:16:40.120Z,54.87
2018-12-08T19:19:09.051Z,55.97
2018-12-08T19:21:38.461Z,53.30
2018-12-08T19:24:07.299Z,53.07
2018-12-08T19:26:36.482Z,58.93
2018-12-08T19:29:05.467Z,61.13
2018-12-08T19:31:36.392Z,54.07
2018-12-08T19:34:05.803Z,46.23
2018-12-08T19:36:35.935Z,55.80
2018-12-08T19:39:06.579Z,64.10
2018-12-08T19:41:35.556Z,86.03
2018-12-08T19:44:05.019Z,63.10
2018-12-08T19:46:33.983Z,51.40
2018-12-08T19:49:02.757Z,60.10
2018-12-08T19:51:32.635Z,59.13
2018-12-08T19:54:01.462Z,62.37
2018-12-08T19:56:30.309Z,60.33
2018-12-08T19:58:59.184Z,62.87
2018-12-08T20:01:28.040Z,69.83
2018-12-08T20:03:56.867Z,67.67
2018-12-08T20:06:25.732Z,71.60
2018-12-08T20:08:55.008Z,74.27
2018-12-08T20:11:23.972Z,70.97
2018-12-08T20:13:52.794Z,74.10
2018-12-08T20:16:21.679Z,71.60
2018-12-08T20:18:50.548Z,67.40
2018-12-08T20:21:19.482Z,81.03
2018-12-08T20:23:48.316Z,84.37
2018-12-08T20:26:17.208Z,100.67
2018-12-08T20:28:46.136Z,95.00
2018-12-08T20:31:15.028Z,114.50
2018-12-08T20:33:43.883Z,86.67
2018-12-08T20:36:12.718Z,152.37
2018-12-08T20:38:41.583Z,72.53
2018-12-08T20:41:10.435Z,70.53
2018-12-08T20:43:39.298Z,70.33
2018-12-08T20:46:08.103Z,66.90
2018-12-08T20:48:37.053Z,69.90
2018-12-08T20:51:05.856Z,74.73
2018-12-08T20:53:34.627Z,70.53
2018-12-08T20:56:03.658Z,74.70
2018-12-08T20:58:32.460Z,73.20
2018-12-08T21:01:01.223Z,73.67
2018-12-08T21:03:30.036Z,71.27
2018-12-08T21:05:58.985Z,69.20
2018-12-08T21:08:27.862Z,66.87
2018-12-08T21:10:56.670Z,68.07
2018-12-08T21:13:25.463Z,72.83
2018-12-08T21:15:54.260Z,69.13
2018-12-08T21:18:24.027Z,68.83
2018-12-08T21:20:52.886Z,66.17
2018-12-08T21:23:21.739Z,66.57
2018-12-08T21:25:50.587Z,66.23
2018-12-08T21:28:19.368Z,70.50
2018-12-08T21:30:48.379Z,67.43
2018-12-08T21:33:17.218Z,68.77
2018-12-08T21:35:46.073Z,65.93
2018-12-08T21:38:14.903Z,64.77
2018-12-08T21:40:43.854Z,67.60
2018-12-08T21:43:12.791Z,71.30
2018-12-08T21:45:41.663Z,65.37
2018-12-08T21:48:10.657Z,63.80
2018-12-08T21:50:39.515Z,65.33
2018-12-08T21:53:08.370Z,67.17
2018-12-08T21:55:37.376Z,60.53
2018-12-08T21:58:06.285Z,63.23
2018-12-08T22:00:35.290Z,60.50
2018-12-08T22:03:04.312Z,59.83
2018-12-08T22:05:33.267Z,57.73
2018-12-08T22:08:02.132Z,54.23
2018-12-08T22:10:30.979Z,61.27
2018-12-08T22:12:59.828Z,57.17
2018-12-08T22:15:28.719Z,59.03
2018-12-08T22:17:57.575Z,61.80
2018-12-08T22:20:26.396Z,58.00
2018-12-08T22:22:55.252Z,59.00
2018-12-08T22:25:24.055Z,60.00
2018-12-08T22:27:52.916Z,58.07
2018-12-08T22:30:21.842Z,58.27
2018-12-08T22:32:50.576Z,61.20
2018-12-08T22:35:19.455Z,57.23
